Time;durP1;ratioP1;P1;durP2;ratioP2;P2;SDS_P1;SDS_P2;PMS_P1;PMS_P2;Temp;Humidity;BMP_temperature;BMP_pressure;BME280_temperature;BME280_humidity;BME280_pressure;Samples;Min_cycle;Max_cycle;Signal;HPM_P1;HPM_P2
2023/03/16 17:34:55;;;;;;;4.75;1.80;;;11.50;87.70;;;;;;5110431;27;20327;-63
2023/03/16 17:37:22;;;;;;;4.20;1.77;;;11.20;90.00;;;;;;5107987;28;20028;-62
2023/03/16 17:39:47;;;;;;;3.65;1.58;;;11.10;91.90;;;;;;5107302;28;20012;-62
2023/03/16 17:42:19;;;;;;;4.05;1.73;;;11.00;93.50;;;;;;5108356;28;20016;-64
2023/03/16 17:44:46;;;;;;;;;;;11.00;94.90;;;;;;5110033;28;20103;-62
2023/03/16 17:47:16;;;;;;;4.03;2.00;;;10.90;96.20;;;;;;5108840;28;19904;-62
2023/03/16 17:49:43;;;;;;;4.60;2.45;;;10.90;96.70;;;;;;5109283;28;20024;-63
2023/03/16 17:52:14;;;;;;;3.30;1.70;;;10.90;97.60;;;;;;5108948;28;20077;-61
2023/03/16 17:54:39;;;;;;;3.57;1.80;;;10.80;97.00;;;;;;5109159;28;20426;-64
2023/03/16 17:57:15;;;;;;;4.03;2.00;;;10.70;97.80;;;;;;5108836;28;20020;-63
2023/03/16 17:59:41;;;;;;;3.78;2.22;;;10.70;97.80;;;;;;5108682;28;20115;-64
2023/03/16 18:02:48;;;;;;;3.00;1.88;;;10.70;98.70;;;;;;5106750;28;20465;-62
2023/03/16 18:05:44;;;;;;;4.82;1.83;;;10.60;99.70;;;;;;5066555;28;20401;-62
2023/03/16 18:08:15;;;;;;;2.70;1.63;;;10.50;99.90;;;;;;5064524;28;20041;-62
2023/03/16 18:10:43;;;;;;;3.07;1.73;;;10.50;99.90;;;;;;5066950;28;20021;-63
2023/03/16 18:13:19;;;;;;;2.45;1.90;;;10.40;99.90;;;;;;5064673;28;20102;-62
2023/03/16 18:15:45;;;;;;;3.10;2.00;;;10.30;99.90;;;;;;5066675;28;20032;-62
2023/03/16 18:18:20;;;;;;;3.67;1.80;;;10.30;99.90;;;;;;5078248;28;20028;-64
2023/03/16 18:20:49;;;;;;;5.70;2.50;;;10.30;99.90;;;;;;5106252;28;20028;-63
2023/03/16 18:23:19;;;;;;;5.18;2.38;;;10.20;99.90;;;;;;5106646;28;20015;-65
2023/03/16 18:25:47;;;;;;;4.47;2.40;;;10.20;99.90;;;;;;5106826;28;20107;-60
2023/03/16 18:28:13;;;;;;;5.20;2.50;;;10.10;99.90;;;;;;5104872;28;20020;-61
2023/03/16 18:30:41;;;;;;;6.97;3.22;;;10.10;99.90;;;;;;5106581;28;20030;-61
2023/03/16 18:33:19;;;;;;;5.22;2.67;;;10.10;99.90;;;;;;5105735;28;20094;-64
2023/03/16 18:35:45;;;;;;;4.28;2.72;;;10.00;99.90;;;;;;5106299;28;20031;-63
2023/03/16 18:38:38;;;;;;;5.28;3.15;;;10.00;99.90;;;;;;5106155;28;20500;-63
2023/03/16 18:41:24;;;;;;;3.25;2.40;;;9.90;99.90;;;;;;5104807;28;20127;-63
2023/03/16 18:43:52;;;;;;;4.28;2.15;;;9.90;99.90;;;;;;5103405;28;20020;-64
2023/03/16 18:46:25;;;;;;;3.15;2.28;;;9.90;99.90;;;;;;5092891;28;20062;-63
2023/03/16 18:48:53;;;;;;;4.55;2.40;;;9.80;99.90;;;;;;5092173;28;20392;-60
2023/03/16 18:51:20;;;;;;;4.70;2.88;;;9.80;99.90;;;;;;5090715;28;20099;-62
2023/03/16 18:53:47;;;;;;;4.75;3.15;;;9.80;99.90;;;;;;5092286;28;20043;-61
2023/03/16 18:56:21;;;;;;;5.55;2.85;;;9.80;99.90;;;;;;5091210;28;20542;-61
2023/03/16 18:58:48;;;;;;;3.55;2.55;;;9.70;99.90;;;;;;5092425;28;20028;-61
2023/03/16 19:01:36;;;;;;;5.22;2.90;;;9.70;99.90;;;;;;5091544;28;20024;-60
2023/03/16 19:04:01;;;;;;;5.07;2.85;;;9.70;99.90;;;;;;5088909;28;20033;-60
2023/03/16 19:06:33;;;;;;;6.47;3.13;;;9.70;99.90;;;;;;5091314;28;20027;-60
2023/03/16 19:09:12;;;;;;;5.00;3.08;;;9.60;99.90;;;;;;5090951;28;20085;-60
2023/03/16 19:11:42;;;;;;;4.00;2.80;;;9.60;99.90;;;;;;5091597;28;20031;-64
2023/03/16 19:14:16;;;;;;;4.72;2.78;;;9.60;99.90;;;;;;5088905;28;20032;-65
2023/03/16 19:16:42;;;;;;;5.18;2.55;;;9.50;99.90;;;;;;5092124;28;20435;-61
2023/03/16 19:19:09;;;;;;;6.15;3.08;;;9.50;99.90;;;;;;5090948;28;20020;-62
2023/03/16 19:21:35;;;;;;;4.22;2.20;;;9.40;99.90;;;;;;5091599;28;20027;-62
2023/03/16 19:24:03;;;;;;;4.22;2.38;;;9.40;99.90;;;;;;5091511;28;20031;-63
2023/03/16 19:26:34;;;;;;;4.25;2.58;;;9.30;99.90;;;;;;5091912;28;20023;-65
2023/03/16 19:29:01;;;;;;;5.68;2.83;;;9.30;99.90;;;;;;5091999;28;20107;-61
2023/03/16 19:31:29;;;;;;;5.57;3.30;;;9.20;99.90;;;;;;5080091;28;20032;-60
2023/03/16 19:33:55;;;;;;;4.88;2.53;;;9.20;99.90;;;;;;5071472;28;20041;-63
2023/03/16 19:36:30;;;;;;;4.95;2.90;;;9.20;99.90;;;;;;5071678;28;20078;-63
2023/03/16 19:38:57;;;;;;;4.75;2.67;;;9.10;99.90;;;;;;5069221;28;20017;-61
2023/03/16 19:41:33;;;;;;;4.38;2.50;;;9.10;99.90;;;;;;5071477;28;20020;-61
2023/03/16 19:44:28;;;;;;;5.43;2.90;;;9.10;99.90;;;;;;5071875;28;20021;-62
2023/03/16 19:46:54;;;;;;;6.47;2.83;;;9.10;99.90;;;;;;5066361;28;20060;-61
2023/03/16 19:49:22;;;;;;;6.78;3.17;;;9.10;99.90;;;;;;5071277;28;20059;-62
2023/03/16 19:51:50;;;;;;;6.57;3.47;;;9.10;99.90;;;;;;5070394;28;20028;-63
2023/03/16 19:54:25;;;;;;;5.65;3.22;;;9.10;99.90;;;;;;5071525;28;20048;-62
2023/03/16 19:56:53;;;;;;;6.38;3.30;;;9.10;99.90;;;;;;5068584;28;20025;-63
2023/03/16 19:59:19;;;;;;;6.20;3.17;;;9.10;99.90;;;;;;5070782;28;20078;-63
2023/03/16 20:01:46;;;;;;;7.43;3.95;;;9.10;99.90;;;;;;5070892;28;20055;-63
2023/03/16 20:04:23;;;;;;;7.22;3.97;;;9.10;99.90;;;;;;5070009;28;20086;-62
2023/03/16 20:06:49;;;;;;;6.07;3.90;;;9.10;99.90;;;;;;5072601;28;20103;-62
2023/03/16 20:09:16;;;;;;;6.47;3.42;;;9.10;99.90;;;;;;5091265;28;20131;-61
2023/03/16 20:11:42;;;;;;;7.13;3.72;;;9.00;99.90;;;;;;5091461;28;20027;-63
2023/03/16 20:14:19;;;;;;;8.45;3.45;;;9.00;99.90;;;;;;5089792;28;20028;-61
2023/03/16 20:16:46;;;;;;;6.28;3.55;;;9.10;99.90;;;;;;5091254;28;20477;-61
2023/03/16 20:19:14;;;;;;;6.93;3.92;;;9.00;99.90;;;;;;5091100;28;20027;-62
2023/03/16 20:21:40;;;;;;;6.88;4.55;;;9.00;99.90;;;;;;5090485;28;20026;-60
2023/03/16 20:24:15;;;;;;;8.15;3.85;;;9.00;99.90;;;;;;5090614;28;20443;-61
2023/03/16 20:26:41;;;;;;;6.30;3.65;;;9.00;99.90;;;;;;5090794;28;20020;-60
2023/03/16 20:29:17;;;;;;;7.57;3.60;;;9.00;99.90;;;;;;5090179;28;20028;-61
2023/03/16 20:31:42;;;;;;;10.63;4.30;;;9.00;99.90;;;;;;5090708;28;20085;-61
2023/03/16 20:34:21;;;;;;;6.78;3.88;;;9.00;99.90;;;;;;5089611;28;20501;-62
2023/03/16 20:36:46;;;;;;;5.72;3.58;;;9.10;99.90;;;;;;5071210;28;20052;-61
2023/03/16 20:39:12;;;;;;;6.22;3.80;;;9.10;99.90;;;;;;5070116;28;20059;-61
2023/03/16 20:41:38;;;;;;;7.28;3.30;;;9.20;99.90;;;;;;5068177;28;20029;-61
2023/03/16 20:44:04;;;;;;;6.07;3.90;;;9.20;99.90;;;;;;5069780;28;20020;-62
2023/03/16 20:46:31;;;;;;;8.27;4.57;;;9.20;99.90;;;;;;5070099;28;20062;-61
2023/03/16 20:48:59;;;;;;;7.07;3.55;;;9.20;99.90;;;;;;5069332;28;20100;-62
